Time Latitude Longitude Accuracy (66% radius in meters) Altitude (meters) Speed (km/hour) Bearing (degrees) Battery (%) GPS flag
11:48:34 57.730735 28.347789 12 56 0 0 77 1 delete
11:47:14 57.730680 28.347593 14 56 0.5 159.69999694824 77 1 delete
11:32:03 57.726882 28.334650 12 72 2 21.10000038147 77 1 delete
11:31:57 57.726780 28.334629 13 74 1.5 348.20001220703 81 1 delete
11:27:07 57.720893 28.334320 13 53 3.5 318.29998779297 81 1 delete
11:26:58 57.720556 28.334574 13 51 2 331.60000610352 81 1 delete
11:26:17 57.719232 28.333104 16 31 1.75 31.10000038147 81 1 delete
11:25:55 57.718719 28.332455 17 38 3.25 20.299999237061 81 1 delete
11:25:12 57.718302 28.329653 18 40 4.5 67.599998474121 81 1 delete
11:25:08 57.718204 28.329262 20 43 3.75 62.599998474121 81 1 delete
11:24:49 57.718157 28.328567 20 33 1.5 53.799999237061 81 1 delete
11:23:51 57.717569 28.328941 15 50 0 0 81 1 delete
11:23:22 57.717437 28.328310 32 57 1.75 46.599998474121 81 1 delete
11:22:05 57.717125 28.326926 14 67 0 0 81 1 delete
11:21:46 57.717005 28.326663 18 66 0.75 186 83 1 delete
11:21:33 57.717186 28.326412 20 71 2.25 174.19999694824 83 1 delete
11:21:12 57.717454 28.326193 22 61 1.5 138.89999389648 83 1 delete
11:20:52 57.717658 28.325841 22 64 1.5 52.599998474121 83 1 delete
11:20:34 57.717874 28.325474 23 65 0.75 64 83 1 delete
11:19:46 57.718376 28.324531 16 70 1 129.39999389648 83 1 delete
11:17:25 57.717764 28.323059 19 74 0.5 272.10000610352 83 1 delete
11:15:21 57.717970 28.325067 19 58 3 2.7999999523163 83 1 delete
11:15:15 57.717749 28.325018 18 53 1.25 341.10000610352 83 1 delete
11:14:45 57.717737 28.325520 15 74 1.25 320.89999389648 83 1 delete
11:12:02 57.717223 28.331259 15 53 1.25 308.79998779297 83 1 delete
11:05:36 57.720375 28.326645 14 56 0.75 325.29998779297 83 1 delete
11:04:43 57.719276 28.327308 14 69 0 0 83 1 delete
10:56:08 57.721276 28.335905 14 58 3.25 208.89999389648 86 1 delete
10:55:08 57.721768 28.337191 12 52 1.25 353 86 1 delete
10:54:40 57.721312 28.337091 13 67 1.5 352.5 86 1 delete
10:53:27 57.720183 28.337210 13 72 1 352.70001220703 86 1 delete
10:53:04 57.719903 28.337107 13 64 1.75 345 86 1 delete
10:52:38 57.719611 28.336889 12 62 0.75 119.09999847412 86 1 delete
10:42:48 57.727087 28.330662 12 59 1.75 294.29998779297 88 1 delete
10:41:33 57.726259 28.332589 12 79 1.5 293.10000610352 88 1 delete
10:36:22 57.726190 28.336723 8 61 1 88.900001525879 88 1 delete
10:24:09 57.727779 28.342772 12 71 3.25 346.79998779297 88 1 delete
10:24:00 57.727495 28.343025 12 70 3 309 88 1 delete
10:23:34 57.727222 28.343063 12 84 1.5 42.400001525879 88 1 delete
10:23:21 57.727071 28.342598 12 78 1.5 24.60000038147 88 1 delete
10:16:52 57.731234 28.343115 13 82 0.75 208.80000305176 91 1 delete
10:16:36 57.731404 28.343532 17 83 1.25 201.89999389648 91 1 delete
10:13:27 57.730588 28.346458 11 70 0.75 1.1000000238419 91 1 delete
09:01:44 57.730652 28.347919 9 59 1.5206906795502 144.69999694824 96 1 delete
09:01:40 57.730709 28.347990 18 79 1.1180340051651 81.900001525879 99 1 delete
09:01:18 57.730444 28.347967 14 69 0.70710676908493 189.39999389648 99 1 delete
09:01:09 57.730546 28.348159 21 89 1.5206906795502 306.79998779297 99 1 delete
09:01:05 57.730531 28.347690 32 25 1.1180340051651 256.39999389648 99 1 delete